createdAt,value
2023-08-10T00:01:07.092Z,12.57
2023-08-10T00:03:36.421Z,12.55
2023-08-10T00:06:04.267Z,12.53
2023-08-10T00:08:32.106Z,12.50
2023-08-10T00:10:59.910Z,12.47
2023-08-10T00:13:28.054Z,12.46
2023-08-10T00:15:56.221Z,12.44
2023-08-10T00:18:23.956Z,12.42
2023-08-10T00:20:52.162Z,12.39
2023-08-10T00:23:20.274Z,12.36
2023-08-10T00:25:49.056Z,12.33
2023-08-10T00:28:16.850Z,12.31
2023-08-10T00:30:44.773Z,12.29
2023-08-10T00:33:17.976Z,12.28
2023-08-10T00:35:52.295Z,12.27
2023-08-10T00:38:20.061Z,12.25
2023-08-10T00:40:48.138Z,12.23
2023-08-10T00:43:15.879Z,12.21
2023-08-10T00:45:43.837Z,12.18
2023-08-10T00:48:11.815Z,12.17
2023-08-10T00:50:39.896Z,12.15
2023-08-10T00:53:07.750Z,12.13
2023-08-10T00:55:35.916Z,12.11
2023-08-10T00:58:03.921Z,12.08
2023-08-10T01:00:31.788Z,12.07
2023-08-10T01:02:59.807Z,12.04
2023-08-10T01:05:34.483Z,12.03
2023-08-10T01:08:11.795Z,12.02
2023-08-10T01:11:21.013Z,12.00
2023-08-10T01:13:59.338Z,12.00
2023-08-10T01:16:29.377Z,11.99
2023-08-10T01:18:58.458Z,11.98
2023-08-10T01:22:02.949Z,11.98
2023-08-10T01:24:34.429Z,11.98
2023-08-10T01:27:03.325Z,11.98
2023-08-10T01:29:31.409Z,11.99
2023-08-10T01:31:59.379Z,11.98
2023-08-10T01:34:27.329Z,11.97
2023-08-10T01:36:55.808Z,11.97
2023-08-10T01:39:23.618Z,11.97
2023-08-10T01:41:51.539Z,11.97
2023-08-10T01:44:19.510Z,11.97
2023-08-10T01:46:48.907Z,11.95
2023-08-10T01:49:20.564Z,11.93
2023-08-10T01:51:50.888Z,11.91
2023-08-10T01:54:21.523Z,11.90
2023-08-10T01:56:49.381Z,11.89
2023-08-10T01:59:17.247Z,11.88
2023-08-10T02:01:45.144Z,11.89
2023-08-10T02:04:13.204Z,11.90
2023-08-10T02:06:41.991Z,11.90
2023-08-10T02:09:10.150Z,11.91
2023-08-10T02:11:38.125Z,11.91
2023-08-10T02:14:06.286Z,11.91
2023-08-10T02:16:34.156Z,11.90
2023-08-10T02:19:02.039Z,11.88
2023-08-10T02:21:29.999Z,11.86
2023-08-10T02:23:57.874Z,11.86
2023-08-10T02:26:25.830Z,11.85
2023-08-10T02:28:53.628Z,11.84
2023-08-10T02:31:22.631Z,11.82
2023-08-10T02:33:50.553Z,11.81
2023-08-10T02:36:18.424Z,11.81
2023-08-10T02:38:46.221Z,11.80
2023-08-10T02:41:14.150Z,11.80
2023-08-10T02:43:42.362Z,11.79
2023-08-10T02:46:10.374Z,11.78
2023-08-10T02:48:38.467Z,11.77
2023-08-10T02:51:06.255Z,11.75
2023-08-10T02:53:34.198Z,11.73
2023-08-10T02:56:02.170Z,11.71
2023-08-10T02:58:30.232Z,11.70
2023-08-10T03:00:58.121Z,11.69
2023-08-10T03:03:27.400Z,11.67
2023-08-10T03:05:55.301Z,11.65
2023-08-10T03:08:23.231Z,11.63
2023-08-10T03:10:51.712Z,11.63
2023-08-10T03:13:19.682Z,11.61
2023-08-10T03:15:47.586Z,11.60
2023-08-10T03:18:15.516Z,11.58
2023-08-10T03:20:43.803Z,11.57
2023-08-10T03:23:11.660Z,11.55
2023-08-10T03:25:39.528Z,11.54
2023-08-10T03:28:07.505Z,11.53
2023-08-10T03:30:37.630Z,11.51
2023-08-10T03:33:05.779Z,11.50
2023-08-10T03:35:34.067Z,11.49
2023-08-10T03:38:01.970Z,11.49
2023-08-10T03:40:29.997Z,11.47
2023-08-10T03:42:57.893Z,11.47
2023-08-10T03:45:25.830Z,11.47
2023-08-10T03:47:53.679Z,11.46
2023-08-10T03:50:21.794Z,11.46
2023-08-10T03:52:49.766Z,11.46
2023-08-10T03:55:20.125Z,11.47
2023-08-10T03:57:48.026Z,11.47
2023-08-10T04:00:17.589Z,11.48
2023-08-10T04:02:45.829Z,11.50
2023-08-10T04:05:14.094Z,11.51
2023-08-10T04:07:42.049Z,11.52
2023-08-10T04:10:11.450Z,11.52
2023-08-10T04:12:40.013Z,11.54
2023-08-10T04:15:08.594Z,11.56
2023-08-10T04:17:37.804Z,11.58
2023-08-10T04:20:10.588Z,11.60
2023-08-10T04:22:38.729Z,11.64
2023-08-10T04:25:08.582Z,11.68
2023-08-10T04:27:36.848Z,11.72
2023-08-10T04:30:05.708Z,11.77
2023-08-10T04:32:33.849Z,11.81
2023-08-10T04:35:01.908Z,11.86
2023-08-10T04:37:29.795Z,11.90
2023-08-10T04:39:57.990Z,11.95
2023-08-10T04:42:25.802Z,11.99
2023-08-10T04:44:53.599Z,12.03
2023-08-10T04:47:21.445Z,12.07
2023-08-10T04:49:49.227Z,12.12
2023-08-10T04:52:16.995Z,12.17
2023-08-10T04:54:45.410Z,12.21
2023-08-10T04:57:13.176Z,12.26
2023-08-10T04:59:40.991Z,12.31
2023-08-10T05:02:09.926Z,12.37
2023-08-10T05:04:37.762Z,12.43
2023-08-10T05:07:05.793Z,12.50
2023-08-10T05:09:42.540Z,12.57
2023-08-10T05:12:21.305Z,12.64
2023-08-10T05:14:49.313Z,12.72
2023-08-10T05:17:17.296Z,12.83
2023-08-10T05:19:45.274Z,12.91
2023-08-10T05:22:13.081Z,13.00
2023-08-10T05:24:41.416Z,13.09
2023-08-10T05:27:09.227Z,13.16
2023-08-10T05:29:37.071Z,13.24
2023-08-10T05:32:05.159Z,13.31
2023-08-10T05:34:33.206Z,13.38
2023-08-10T05:37:01.007Z,13.44
2023-08-10T05:39:29.310Z,13.52
2023-08-10T05:41:57.152Z,13.61
2023-08-10T05:44:24.901Z,13.68
2023-08-10T05:46:52.939Z,13.74
2023-08-10T05:49:20.757Z,13.78
2023-08-10T05:51:48.613Z,13.81
2023-08-10T05:54:16.474Z,13.83
2023-08-10T05:56:44.307Z,13.88
2023-08-10T05:59:12.200Z,13.95
2023-08-10T06:01:44.515Z,14.01
2023-08-10T06:04:12.620Z,14.09
2023-08-10T06:06:40.430Z,14.15
2023-08-10T06:09:12.544Z,14.23
2023-08-10T06:11:48.177Z,14.30
2023-08-10T06:14:16.683Z,14.40
2023-08-10T06:16:44.665Z,14.48
2023-08-10T06:19:12.439Z,14.55
2023-08-10T06:21:40.256Z,14.62
2023-08-10T06:24:10.533Z,14.68
2023-08-10T06:26:38.492Z,14.74
2023-08-10T06:29:06.505Z,14.81
2023-08-10T06:31:34.567Z,14.86
2023-08-10T06:34:04.257Z,14.93
2023-08-10T06:36:32.413Z,15.01
2023-08-10T06:39:00.288Z,15.08
2023-08-10T06:41:28.853Z,15.16
2023-08-10T06:43:57.010Z,15.23
2023-08-10T06:46:24.869Z,15.32
2023-08-10T06:48:52.765Z,15.39
2023-08-10T06:51:20.631Z,15.46
2023-08-10T06:53:48.524Z,15.53
2023-08-10T06:56:17.284Z,15.62
2023-08-10T06:59:19.443Z,15.72
2023-08-10T07:01:32.878Z,15.84
2023-08-10T07:04:03.738Z,15.93
2023-08-10T07:06:32.865Z,16.00
2023-08-10T07:09:00.720Z,16.09
2023-08-10T07:11:28.599Z,16.18
2023-08-10T07:13:56.506Z,16.25
2023-08-10T07:16:24.912Z,16.33
2023-08-10T07:18:52.868Z,16.40
2023-08-10T07:21:21.667Z,16.46
2023-08-10T07:23:49.890Z,16.52
2023-08-10T07:26:17.827Z,16.61
2023-08-10T07:28:48.570Z,16.73
2023-08-10T07:31:16.938Z,16.86
2023-08-10T07:33:44.794Z,16.96
2023-08-10T07:36:13.350Z,17.06
2023-08-10T07:38:41.863Z,17.15
2023-08-10T07:41:09.766Z,17.27
2023-08-10T07:43:37.569Z,17.38
2023-08-10T07:46:05.461Z,17.51
2023-08-10T07:48:33.475Z,17.61
2023-08-10T07:51:02.415Z,17.67
2023-08-10T07:53:30.832Z,17.79
2023-08-10T07:56:01.207Z,17.90
2023-08-10T07:58:32.683Z,18.02
2023-08-10T08:01:15.686Z,18.10
2023-08-10T08:03:45.093Z,18.18
2023-08-10T08:06:15.722Z,18.25
2023-08-10T08:08:44.652Z,18.32
2023-08-10T08:11:30.633Z,18.41
2023-08-10T08:14:00.270Z,18.47
2023-08-10T08:16:30.793Z,18.55
2023-08-10T08:19:02.294Z,18.59
2023-08-10T08:21:32.757Z,18.56
2023-08-10T08:24:02.297Z,18.45
2023-08-10T08:26:31.792Z,18.33
2023-08-10T08:29:01.717Z,18.37
2023-08-10T08:31:29.781Z,18.50
2023-08-10T08:33:59.031Z,18.65
2023-08-10T08:36:27.192Z,18.81
2023-08-10T08:38:57.916Z,18.97
2023-08-10T08:41:36.893Z,19.10
2023-08-10T08:44:08.190Z,19.22
2023-08-10T08:46:45.124Z,19.33
2023-08-10T08:49:13.519Z,19.47
2023-08-10T08:51:51.299Z,19.60
2023-08-10T08:54:22.456Z,19.66
2023-08-10T08:57:04.697Z,19.82
2023-08-10T08:59:34.272Z,19.90
2023-08-10T09:02:16.312Z,19.97
2023-08-10T09:04:45.981Z,20.06
2023-08-10T09:07:14.156Z,20.08
2023-08-10T09:09:43.177Z,19.92
2023-08-10T09:12:34.377Z,19.86
2023-08-10T09:15:06.510Z,19.92
2023-08-10T09:17:37.920Z,20.02
2023-08-10T09:20:10.302Z,20.12
2023-08-10T09:22:40.128Z,20.23
2023-08-10T09:25:08.566Z,20.35
2023-08-10T09:27:38.850Z,20.49
2023-08-10T09:30:08.873Z,20.59
2023-08-10T09:32:50.074Z,20.68
2023-08-10T09:35:20.514Z,20.75
2023-08-10T09:37:49.728Z,20.82
2023-08-10T09:40:18.617Z,20.89
2023-08-10T09:42:49.916Z,21.00
2023-08-10T09:45:19.418Z,21.08
2023-08-10T09:47:52.330Z,21.17
2023-08-10T09:50:25.816Z,21.20
2023-08-10T09:52:55.667Z,21.25
2023-08-10T09:55:24.114Z,21.33
2023-08-10T09:57:53.561Z,21.42
2023-08-10T10:00:24.563Z,21.52
2023-08-10T10:02:55.543Z,21.57
2023-08-10T10:08:01.625Z,21.34
2023-08-10T10:10:32.433Z,21.34
2023-08-10T10:13:02.314Z,21.44
2023-08-10T10:15:32.093Z,21.50
2023-08-10T10:18:00.309Z,21.54
2023-08-10T10:20:28.944Z,21.55
2023-08-10T10:22:56.928Z,21.53
2023-08-10T10:25:24.860Z,21.59
2023-08-10T10:27:55.849Z,21.50
2023-08-10T10:30:25.340Z,21.31
2023-08-10T10:32:54.093Z,21.14
2023-08-10T10:35:30.772Z,20.98
2023-08-10T10:37:59.985Z,20.82
2023-08-10T10:40:28.731Z,20.70
2023-08-10T10:43:07.107Z,20.60
2023-08-10T10:45:36.169Z,20.50
2023-08-10T10:48:07.099Z,20.43
2023-08-10T10:50:36.284Z,20.49
2023-08-10T10:53:17.092Z,20.69
2023-08-10T10:55:46.711Z,20.94
2023-08-10T10:58:18.222Z,21.16
2023-08-10T11:00:49.638Z,21.36
2023-08-10T11:03:21.103Z,21.53
2023-08-10T11:05:49.404Z,21.71
2023-08-10T11:08:17.344Z,21.87
2023-08-10T11:10:45.882Z,21.95
2023-08-10T11:13:14.370Z,22.03
2023-08-10T11:15:47.653Z,22.03
2023-08-10T11:18:15.758Z,22.09
2023-08-10T11:20:49.064Z,22.21
2023-08-10T11:23:17.006Z,22.34
2023-08-10T11:25:50.668Z,22.46
2023-08-10T11:28:20.593Z,22.55
2023-08-10T11:30:49.724Z,22.50
2023-08-10T11:35:52.999Z,22.50
2023-08-10T11:38:21.707Z,22.53
2023-08-10T11:40:49.827Z,22.62
2023-08-10T11:43:21.624Z,22.70
2023-08-10T11:45:50.240Z,22.78
2023-08-10T11:48:20.846Z,22.81
2023-08-10T11:50:59.325Z,22.88
2023-08-10T11:53:40.475Z,22.90
2023-08-10T11:56:10.250Z,22.95
2023-08-10T11:58:41.269Z,23.02
2023-08-10T12:01:10.780Z,23.13
2023-08-10T12:03:51.025Z,23.23
2023-08-10T12:06:20.005Z,23.27
2023-08-10T12:08:58.265Z,23.34
2023-08-10T12:11:27.814Z,23.38
2023-08-10T12:13:55.902Z,23.35
2023-08-10T12:16:24.440Z,23.29
2023-08-10T12:18:53.188Z,23.22
2023-08-10T12:21:21.327Z,23.11
2023-08-10T12:23:49.426Z,23.06
2023-08-10T12:26:18.104Z,23.10
2023-08-10T12:31:18.727Z,23.05
2023-08-10T12:33:47.073Z,23.03
2023-08-10T12:36:15.121Z,23.01
2023-08-10T12:38:43.439Z,23.03
2023-08-10T12:41:12.909Z,23.03
2023-08-10T12:43:41.031Z,22.94
2023-08-10T12:46:09.227Z,22.75
2023-08-10T12:48:37.802Z,22.60
2023-08-10T12:51:09.210Z,22.51
2023-08-10T12:53:37.633Z,22.44
2023-08-10T12:56:05.913Z,22.46
2023-08-10T12:58:33.953Z,22.54
2023-08-10T13:01:02.129Z,22.63
2023-08-10T13:03:32.595Z,22.71
2023-08-10T13:06:00.825Z,22.63
2023-08-10T13:08:29.137Z,22.52
2023-08-10T13:10:57.014Z,22.39
2023-08-10T13:13:24.969Z,22.32
2023-08-10T13:15:52.952Z,22.35
2023-08-10T13:18:21.076Z,22.47
2023-08-10T13:20:49.086Z,22.63
2023-08-10T13:23:16.941Z,22.79
2023-08-10T13:25:44.903Z,22.97
2023-08-10T13:28:12.966Z,23.15
2023-08-10T13:30:41.584Z,23.30
2023-08-10T13:33:09.641Z,23.46
2023-08-10T13:35:37.879Z,23.60
2023-08-10T13:38:05.673Z,23.75
2023-08-10T13:40:33.715Z,23.86
2023-08-10T13:43:01.896Z,23.92
2023-08-10T13:45:29.997Z,23.98
2023-08-10T13:47:58.060Z,24.03
2023-08-10T13:50:28.668Z,24.07
2023-08-10T13:52:56.656Z,24.10
2023-08-10T13:55:26.026Z,24.13
2023-08-10T13:57:54.103Z,24.18
2023-08-10T14:00:22.167Z,24.21
2023-08-10T14:02:50.367Z,24.21
2023-08-10T14:05:18.529Z,24.23
2023-08-10T14:07:46.687Z,24.16
2023-08-10T14:10:14.771Z,24.03
2023-08-10T14:12:43.301Z,23.91
2023-08-10T14:15:11.822Z,23.79
2023-08-10T14:17:39.804Z,23.68
2023-08-10T14:20:09.448Z,23.67
2023-08-10T14:22:37.919Z,23.70
2023-08-10T14:25:06.364Z,23.78
2023-08-10T14:27:34.344Z,23.85
2023-08-10T14:30:02.434Z,23.92
2023-08-10T14:32:30.820Z,23.93
2023-08-10T14:34:58.853Z,23.94
2023-08-10T14:37:27.526Z,23.92
2023-08-10T14:39:55.704Z,23.91
2023-08-10T14:42:23.766Z,23.88
2023-08-10T14:44:52.951Z,23.88
2023-08-10T14:47:21.428Z,23.91
2023-08-10T14:49:49.514Z,23.93
2023-08-10T14:52:17.494Z,23.95
2023-08-10T14:54:45.352Z,23.96
2023-08-10T14:57:13.331Z,23.95
2023-08-10T14:59:42.516Z,23.86
2023-08-10T15:02:10.676Z,23.79
2023-08-10T15:04:38.859Z,23.74
2023-08-10T15:07:06.966Z,23.70
2023-08-10T15:09:35.099Z,23.69
2023-08-10T15:12:03.833Z,23.70
2023-08-10T15:14:32.092Z,23.72
2023-08-10T15:17:00.025Z,23.75
2023-08-10T15:19:27.926Z,23.82
2023-08-10T15:21:55.969Z,23.91
2023-08-10T15:24:23.795Z,24.00
2023-08-10T15:26:51.699Z,24.08
2023-08-10T15:29:19.566Z,24.11
2023-08-10T15:31:47.440Z,24.17
2023-08-10T15:34:15.409Z,24.24
2023-08-10T15:36:43.193Z,24.27
2023-08-10T15:39:11.154Z,24.29
2023-08-10T15:41:39.204Z,24.26
2023-08-10T15:44:07.096Z,24.24
2023-08-10T15:46:35.265Z,24.23
2023-08-10T15:49:03.249Z,24.22
2023-08-10T15:51:31.042Z,24.19
2023-08-10T15:53:59.719Z,24.17
2023-08-10T15:56:28.493Z,24.13
2023-08-10T15:58:57.643Z,24.15
2023-08-10T16:01:26.442Z,24.14
2023-08-10T16:03:56.959Z,24.19
2023-08-10T16:06:39.996Z,24.25
2023-08-10T16:09:11.149Z,24.29
2023-08-10T16:11:42.258Z,24.29
2023-08-10T16:14:13.510Z,24.33
2023-08-10T16:16:42.398Z,24.40
2023-08-10T16:19:15.079Z,24.49
2023-08-10T16:21:44.077Z,24.48
2023-08-10T16:24:16.042Z,24.43
2023-08-10T16:26:45.850Z,24.38
2023-08-10T16:29:14.236Z,24.25
2023-08-10T16:31:44.687Z,24.11
2023-08-10T16:34:13.247Z,23.97
2023-08-10T16:36:41.720Z,23.82
2023-08-10T16:39:12.654Z,23.72
2023-08-10T16:41:48.206Z,23.60
2023-08-10T16:44:20.886Z,23.45
2023-08-10T16:46:49.256Z,23.26
2023-08-10T16:49:17.246Z,23.08
2023-08-10T16:51:46.735Z,22.94
2023-08-10T16:54:17.673Z,22.79
2023-08-10T16:56:47.999Z,22.65
2023-08-10T16:59:16.679Z,22.53
2023-08-10T17:01:56.842Z,22.41
2023-08-10T17:04:25.720Z,22.29
2023-08-10T17:06:54.005Z,22.17
2023-08-10T17:09:22.523Z,22.06
2023-08-10T17:11:50.961Z,21.96
2023-08-10T17:14:19.230Z,21.85
2023-08-10T17:16:47.643Z,21.75
2023-08-10T17:19:16.294Z,21.65
2023-08-10T17:21:44.612Z,21.53
2023-08-10T17:24:13.397Z,21.40
2023-08-10T17:26:41.646Z,21.26
2023-08-10T17:29:19.592Z,21.13
2023-08-10T17:31:49.654Z,21.01
2023-08-10T17:34:18.333Z,20.90
2023-08-10T17:36:48.555Z,20.77
2023-08-10T17:39:17.237Z,20.66
2023-08-10T17:41:48.082Z,20.53
2023-08-10T17:44:16.862Z,20.40
2023-08-10T17:46:45.482Z,20.27
2023-08-10T17:49:14.275Z,20.16
2023-08-10T17:51:42.670Z,20.05
2023-08-10T17:54:11.457Z,19.94
2023-08-10T17:56:39.375Z,19.82
2023-08-10T17:59:07.254Z,19.70
2023-08-10T18:01:38.634Z,19.60
2023-08-10T18:04:06.958Z,19.48
2023-08-10T18:06:35.036Z,19.38
2023-08-10T18:09:03.207Z,19.28
2023-08-10T18:11:31.377Z,19.17
2023-08-10T18:14:01.853Z,19.05
2023-08-10T18:16:31.191Z,18.94
2023-08-10T18:18:59.107Z,18.82
2023-08-10T18:21:27.105Z,18.72
2023-08-10T18:23:56.649Z,18.64
2023-08-10T18:26:25.870Z,18.56
2023-08-10T18:28:53.956Z,18.49
2023-08-10T18:31:22.428Z,18.42
2023-08-10T18:33:50.564Z,18.34
2023-08-10T18:36:18.444Z,18.28
2023-08-10T18:38:46.595Z,18.21
2023-08-10T18:41:17.497Z,18.14
2023-08-10T18:43:45.555Z,18.08
2023-08-10T18:46:13.687Z,18.02
2023-08-10T18:48:41.611Z,17.95
2023-08-10T18:51:09.538Z,17.88
2023-08-10T18:53:37.403Z,17.81
2023-08-10T18:56:05.348Z,17.76
2023-08-10T18:58:33.171Z,17.71
2023-08-10T19:01:01.024Z,17.66
2023-08-10T19:03:29.173Z,17.63
2023-08-10T19:05:56.983Z,17.59
2023-08-10T19:08:24.979Z,17.55
2023-08-10T19:10:57.041Z,17.51
2023-08-10T19:13:26.317Z,17.45
2023-08-10T19:16:05.256Z,17.38
2023-08-10T19:18:35.318Z,17.31
2023-08-10T19:21:08.128Z,17.24
2023-08-10T19:23:36.408Z,17.16
2023-08-10T19:26:04.885Z,17.09
2023-08-10T19:28:36.063Z,17.00
2023-08-10T19:31:08.848Z,16.93
2023-08-10T19:33:38.329Z,16.86
2023-08-10T19:36:06.528Z,16.78
2023-08-10T19:38:34.447Z,16.71
2023-08-10T19:41:02.302Z,16.65
2023-08-10T19:43:30.291Z,16.58
2023-08-10T19:45:59.557Z,16.52
2023-08-10T19:48:27.727Z,16.44
2023-08-10T19:50:55.777Z,16.36
2023-08-10T19:53:23.757Z,16.29
2023-08-10T19:55:52.203Z,16.21
2023-08-10T19:58:22.167Z,16.14
2023-08-10T20:00:50.036Z,16.07
2023-08-10T20:03:17.997Z,16.00
2023-08-10T20:05:47.155Z,15.93
2023-08-10T20:08:16.736Z,15.87
2023-08-10T20:10:46.697Z,15.80
2023-08-10T20:13:17.535Z,15.74
2023-08-10T20:15:46.673Z,15.68
2023-08-10T20:18:14.925Z,15.63
2023-08-10T20:20:46.070Z,15.59
2023-08-10T20:23:15.324Z,15.55
2023-08-10T20:25:43.918Z,15.49
2023-08-10T20:28:21.540Z,15.44
2023-08-10T20:30:51.004Z,15.40
2023-08-10T20:33:23.198Z,15.34
2023-08-10T20:35:54.106Z,15.28
2023-08-10T20:38:22.588Z,15.22
2023-08-10T20:40:53.117Z,15.16
2023-08-10T20:43:23.891Z,15.11
2023-08-10T20:45:54.305Z,15.05
2023-08-10T20:48:23.480Z,15.01
2023-08-10T20:50:54.926Z,14.95
2023-08-10T20:53:25.583Z,14.90
2023-08-10T20:55:55.569Z,14.85
2023-08-10T20:58:26.500Z,14.82
2023-08-10T21:00:56.455Z,14.77
2023-08-10T21:03:27.029Z,14.72
2023-08-10T21:05:57.574Z,14.68
2023-08-10T21:08:41.847Z,14.64
2023-08-10T21:11:10.415Z,14.61
2023-08-10T21:13:40.933Z,14.58
2023-08-10T21:16:11.609Z,14.55
2023-08-10T21:18:45.314Z,14.53
2023-08-10T21:21:22.147Z,14.51
2023-08-10T21:23:55.142Z,14.47
2023-08-10T21:26:26.808Z,14.43
2023-08-10T21:28:56.034Z,14.40
2023-08-10T21:31:24.256Z,14.37
2023-08-10T21:33:54.498Z,14.34
2023-08-10T21:36:23.070Z,14.31
2023-08-10T21:38:55.170Z,14.28
2023-08-10T21:41:24.533Z,14.25
2023-08-10T21:43:55.165Z,14.22
2023-08-10T21:46:23.687Z,14.19
2023-08-10T21:48:52.024Z,14.16
2023-08-10T21:51:20.821Z,14.11
2023-08-10T21:53:49.085Z,14.07
2023-08-10T21:56:28.733Z,14.02
2023-08-10T21:59:00.994Z,13.98
2023-08-10T22:01:29.679Z,13.94
2023-08-10T22:03:58.059Z,13.90
2023-08-10T22:06:28.383Z,13.86
2023-08-10T22:08:56.558Z,13.82
2023-08-10T22:11:27.288Z,13.77
2023-08-10T22:13:55.713Z,13.71
2023-08-10T22:16:24.407Z,13.66
2023-08-10T22:18:54.714Z,13.61
2023-08-10T22:21:24.075Z,13.58
2023-08-10T22:23:52.254Z,13.56
2023-08-10T22:26:20.632Z,13.53
2023-08-10T22:28:49.820Z,13.50
2023-08-10T22:31:18.013Z,13.47
2023-08-10T22:33:47.024Z,13.43
2023-08-10T22:36:18.260Z,13.38
2023-08-10T22:38:46.952Z,13.35
2023-08-10T22:41:19.844Z,13.32
2023-08-10T22:43:48.070Z,13.28
2023-08-10T22:46:16.466Z,13.26
2023-08-10T22:48:44.520Z,13.22
2023-08-10T22:51:12.498Z,13.19
2023-08-10T22:53:40.507Z,13.16
2023-08-10T22:56:08.421Z,13.12
2023-08-10T22:58:36.394Z,13.09
2023-08-10T23:01:05.597Z,13.06
2023-08-10T23:03:46.872Z,13.03
2023-08-10T23:06:15.041Z,12.99
2023-08-10T23:08:43.213Z,12.95
2023-08-10T23:11:11.180Z,12.92
2023-08-10T23:13:39.044Z,12.89
2023-08-10T23:16:08.715Z,12.87
2023-08-10T23:18:36.721Z,12.85
2023-08-10T23:21:04.915Z,12.82
2023-08-10T23:23:33.189Z,12.77
2023-08-10T23:26:01.089Z,12.73
2023-08-10T23:28:29.027Z,12.69
2023-08-10T23:30:57.094Z,12.66
2023-08-10T23:33:25.066Z,12.62
2023-08-10T23:35:53.661Z,12.58
2023-08-10T23:38:21.623Z,12.53
2023-08-10T23:40:49.579Z,12.50
2023-08-10T23:43:19.090Z,12.48
2023-08-10T23:45:47.567Z,12.46
2023-08-10T23:48:16.358Z,12.45
2023-08-10T23:50:44.317Z,12.42
2023-08-10T23:53:12.186Z,12.40
2023-08-10T23:55:40.868Z,12.38
2023-08-10T23:58:08.836Z,12.37
